logo
Search for airport 
image banner adimage banner adimage banner ad
image banner ad

SECC - La Celeste

Located in La Concordia, Ecuador, Ecuador

ICAO - , IATA -

Data provided by Airmate  

General information

Coordinates: N0°0'40" W79°22'3"
Elevation is 650 feet MSL.
Magnetic variation is -4° East
View others Airports in Esmeraldas

Operational data

Special qualification required
Current time UTC:
Current local time:
Weather at : - ( 0 km )
METAR: PAII 280043Z AUTO 21008KT 10SM OVC010 07/03 A2992 RMK AO2
View NOTAMs / SUP AIP / TFR affecting this airport [VIEW]
Communications frequencies: [VIEW]

Runways:

RWY identifierQFULength (ft)Width (ft)SurfaceLDA (ft)
17174°374673ASPH
35354°374673ASPH

Airport contact information

Address: La Concordia, Ecuador Ecuador

Satellite view of SECC